ADDS METAR Data INFO
IDs: Format: Raw Decoded Include TAF

Data at: 1748 UTC 21 Oct 2017

KRNP 211735Z AUTO 17011KT 10SM CLR 24/08 A3014 RMK AO2 T02350075
KRNP 211714Z AUTO 19009KT 10SM CLR 24/08 A3015 RMK AO2 T02350077
KRNP 211655Z AUTO 19006KT 10SM CLR 23/09 A3016 RMK AO2 T02340087
KRNP 211635Z AUTO 21008KT 10SM CLR 23/09 A3016 RMK AO2 T02310085
KRNP 211615Z AUTO 19010G15KT 10SM CLR 23/09 A3017 RMK AO2 T02260090
KRNP 211555Z AUTO 19013G18KT 10SM CLR 22/10 A3017 RMK AO2 T02210095
KRNP 211534Z AUTO 19008KT 10SM CLR 22/10 A3017 RMK AO2 T02160100
KRNP 211515Z AUTO 21007KT 10SM CLR 21/10 A3017 RMK AO2 T02100100
KRNP 211455Z AUTO 20008G14KT 10SM CLR 20/10 A3017 RMK AO2 T02030099
KRNP 211434Z AUTO 19008KT 10SM CLR 19/10 A3018 RMK AO2 T01940101
KRNP 211415Z AUTO 19009KT 10SM CLR 19/10 A3018 RMK AO2 T01900102
KRNP 211355Z AUTO 19005KT 10SM CLR 18/10 A3018 RMK AO2 T01780103
KRNP 211335Z AUTO 19004KT 10SM CLR 17/10 A3017 RMK AO2 T01730103
KRNP 211315Z AUTO 18005KT 10SM CLR 16/10 A3017 RMK AO2 T01610100
KRNP 211255Z AUTO 18006KT 10SM CLR 15/10 A3017 RMK AO2 T01490096
KRNP 211234Z AUTO 19004KT 10SM CLR 15/10 A3017 RMK AO2 T01460095
KRNP 211215Z AUTO 19004KT 10SM CLR 15/10 A3017 RMK AO2 T01450095
KRNP 211154Z AUTO 18004KT 10SM CLR 14/10 A3017 RMK AO2 T01420095
KRNP 211135Z AUTO 18003KT 10SM CLR 14/10 A3017 RMK AO2 T01400095
KRNP 211115Z AUTO 00000KT 10SM CLR 14/09 A3017 RMK AO2 T01380094
KRNP 211055Z AUTO 00000KT 10SM CLR 14/09 A3017 RMK AO2 T01350091
KRNP 211035Z AUTO 20003KT 10SM CLR 14/09 A3016 RMK AO2 T01390092
KRNP 211014Z AUTO 18003KT 10SM CLR 15/09 A3015 RMK AO2 T01450093
KRNP 210955Z AUTO 20003KT 10SM CLR 15/10 A3016 RMK AO2 T01450095
KRNP 210935Z AUTO 19003KT 10SM CLR 14/09 A3015 RMK AO2 T01420093
KRNP 210914Z AUTO 17003KT 10SM CLR 15/10 A3014 RMK AO2 T01450095
KRNP 210855Z AUTO 00000KT 10SM CLR 14/09 A3014 RMK AO2 T01440093
KRNP 210835Z AUTO 00000KT 10SM CLR 14/09 A3013 RMK AO2 T01400092
KRNP 210814Z AUTO 20003KT 10SM CLR 15/09 A3014 RMK AO2 T01460094
KRNP 210755Z AUTO 20003KT 10SM CLR 15/10 A3013 RMK AO2 T01480095
KRNP 210735Z AUTO 00000KT 10SM CLR 15/10 A3014 RMK AO2 T01480095
KRNP 210715Z AUTO 00000KT 10SM CLR 15/10 A3014 RMK AO2 T01480096
KRNP 210655Z AUTO 17003KT 10SM CLR 16/10 A3013 RMK AO2 T01550100
KRNP 210635Z AUTO 19003KT 10SM CLR 15/10 A3013 RMK AO2 T01530099
KRNP 210615Z AUTO 18003KT 10SM CLR 15/10 A3012 RMK AO2 T01520098
KRNP 210555Z AUTO 17003KT 10SM CLR 16/10 A3013 RMK AO2 T01560100 10193 20152
KRNP 210535Z AUTO 18003KT 10SM CLR 16/10 A3013 RMK AO2 T01550099
KRNP 210515Z AUTO 17003KT 10SM CLR 16/10 A3012 RMK AO2 T01550098
KRNP 210455Z AUTO 16004KT 10SM CLR 16/10 A3012 RMK AO2 T01570100 402490031
KRNP 210435Z AUTO 16004KT 10SM CLR 16/10 A3012 RMK AO2 T01570097
KRNP 210415Z AUTO 00000KT 10SM CLR 16/10 A3012 RMK AO2 T01620098
KRNP 210355Z AUTO 17003KT 10SM CLR 17/10 A3012 RMK AO2 T01650100
KRNP 210335Z AUTO 18003KT 10SM CLR 17/10 A3013 RMK AO2 T01670099
KRNP 210315Z AUTO 17003KT 10SM CLR 17/10 A3012 RMK AO2 T01650099
KRNP 210255Z AUTO 18003KT 10SM CLR 17/10 A3012 RMK AO2 T01670100
KRNP 210235Z AUTO 00000KT 10SM CLR 17/10 A3012 RMK AO2 T01720100
KRNP 210215Z AUTO 17003KT 10SM CLR 18/10 A3012 RMK AO2 T01750100
KRNP 210155Z AUTO 18003KT 10SM CLR 18/10 A3012 RMK AO2 T01750100
KRNP 210135Z AUTO 17003KT 10SM CLR 18/10 A3012 RMK AO2 T01780098
KRNP 210115Z AUTO 18003KT 10SM CLR 18/10 A3012 RMK AO2 T01810098
KRNP 210055Z AUTO 18003KT 10SM CLR 19/10 A3011 RMK AO2 T01850098
KRNP 210035Z AUTO 18004KT 10SM CLR 19/10 A3012 RMK AO2 T01870097
KRNP 210015Z AUTO 17004KT 7SM CLR 19/10 A3012 RMK AO2 T01900095
KRNP 202354Z AUTO 00000KT 10SM CLR 19/10 A3012 RMK AO2 T01930095
KRNP 202335Z AUTO 17003KT 10SM CLR 20/10 A3012 RMK AO2 T01980095
KRNP 202315Z AUTO 16003KT 10SM CLR 20/10 A3012 RMK AO2 T01980095
KRNP 202254Z AUTO 16003KT 10SM CLR 21/09 A3012 RMK AO2 T02100092
KRNP 202235Z AUTO 17004KT 7SM CLR 22/09 A3012 RMK AO2 T02190091
KRNP 202215Z AUTO 20005KT 10SM CLR 23/09 A3012 RMK AO2 T02250090
KRNP 202154Z AUTO 20006KT 10SM CLR 23/09 A3012 RMK AO2 T02320089
KRNP 202135Z AUTO 20005KT 10SM CLR 24/09 A3011 RMK AO2 T02390085
KRNP 202115Z AUTO 20008KT 10SM CLR 24/09 A3012 RMK AO2 T02400085
KRNP 202054Z AUTO 22009KT 10SM CLR 25/08 A3012 RMK AO2 T02450082
KRNP 202035Z AUTO 20011KT 10SM CLR 25/08 A3012 RMK AO2 T02480081
KRNP 202015Z AUTO 21008KT 10SM CLR 25/08 A3013 RMK AO2 T02450082
KRNP 201954Z AUTO 20008KT 10SM CLR 25/08 A3014 RMK AO2 T02450080
KRNP 201935Z AUTO 20013KT 10SM CLR 25/09 A3014 RMK AO2 T02480086
KRNP 201915Z AUTO 20008KT 10SM CLR 25/09 A3015 RMK AO2 T02470088
KRNP 201854Z AUTO 22008G15KT 10SM CLR 25/09 A3015 RMK AO2 T02450085
KRNP 201835Z AUTO 21009KT 160V220 10SM CLR 24/08 A3016 RMK AO2 T02430084
KRNP 201815Z AUTO 20010G16KT 10SM CLR 24/08 A3016 RMK AO2 T02400084
KRNP 201755Z AUTO 21010KT 10SM CLR 24/09 A3017 RMK AO2 T02380087 10238 20035
KRNP 201735Z AUTO 22011G14KT 10SM CLR 23/09 A3018 RMK AO2 T02310086
KRNP 201715Z AUTO 22008KT 170V230 10SM CLR 23/09 A3019 RMK AO2 T02280085
KRNP 201655Z AUTO 20008KT 10SM CLR 22/09 A3020 RMK AO2 T02240085
KRNP 201635Z AUTO 20009KT 10SM CLR 22/08 A3021 RMK AO2 T02170084
KRNP 201614Z AUTO 20007KT 10SM CLR 21/08 A3021 RMK AO2 T02100082
KRNP 201555Z AUTO 21008KT 170V230 10SM CLR 20/08 A3022 RMK AO2 T02010077
KRNP 201535Z AUTO 18007KT 10SM CLR 20/07 A3022 RMK AO2 T01960073
KRNP 201515Z AUTO 19007KT 10SM CLR 19/07 A3023 RMK AO2 T01890070
KRNP 201455Z AUTO 19007KT 10SM CLR 18/07 A3023 RMK AO2 T01820068
KRNP 201435Z AUTO 19007KT 10SM CLR 17/06 A3023 RMK AO2 T01720062
KRNP 201415Z AUTO 18005KT 10SM CLR 16/05 A3023 RMK AO2 T01610054
KRNP 201355Z AUTO 18008KT 10SM CLR 15/04 A3024 RMK AO2 T01500044
KRNP 201334Z AUTO 18004KT 10SM CLR 13/03 A3024 RMK AO2 T01330027
KRNP 201315Z AUTO 00000KT 10SM CLR 12/01 A3024 RMK AO2 T01180014
KRNP 201255Z AUTO 00000KT 10SM CLR 10/02 A3023 RMK AO2 T00980017
KRNP 201234Z AUTO 00000KT 10SM CLR 06/02 A3023 RMK AO2 T00610020
KRNP 201215Z AUTO 00000KT 10SM CLR 05/02 A3022 RMK AO2 T00450017
KRNP 201155Z AUTO 00000KT 10SM CLR 04/01 A3022 RMK AO2 T00370014 10068 20031
KRNP 201134Z AUTO 00000KT 10SM CLR 03/02 A3022 RMK AO2 T00330016
KRNP 201115Z AUTO 00000KT 10SM CLR 04/02 A3022 RMK AO2 T00370016
KRNP 201055Z AUTO 00000KT 10SM CLR 04/02 A3021 RMK AO2 T00400017
KRNP 201035Z AUTO 00000KT 10SM CLR 04/02 A3021 RMK AO2 T00380015
KRNP 201015Z AUTO 00000KT 10SM CLR 04/02 A3021 RMK AO2 T00390019
KRNP 200955Z AUTO 00000KT 10SM CLR 04/02 A3021 RMK AO2 T00400018
KRNP 200935Z AUTO 00000KT 10SM CLR 05/02 A3021 RMK AO2 T00450016
KRNP 200915Z AUTO 00000KT 10SM CLR 04/02 A3021 RMK AO2 T00400015
KRNP 200855Z AUTO 00000KT 10SM CLR 04/01 A3021 RMK AO2 T00410014
KRNP 200835Z AUTO 00000KT 10SM CLR 05/02 A3021 RMK AO2 T00500019
KRNP 200815Z AUTO 00000KT 10SM CLR 04/02 A3021 RMK AO2 T00430015
KRNP 200755Z AUTO 00000KT 10SM CLR 04/02 A3021 RMK AO2 T00430016
KRNP 200735Z AUTO 00000KT 10SM CLR 06/02 A3021 RMK AO2 T00640017
KRNP 200715Z AUTO 00000KT 10SM CLR 05/02 A3021 RMK AO2 T00510018
KRNP 200654Z AUTO 00000KT 10SM CLR 05/02 A3021 RMK AO2 T00510019
KRNP 200635Z AUTO 00000KT 10SM CLR 06/02 A3021 RMK AO2 T00570023
KRNP 200615Z AUTO 00000KT 10SM CLR 05/03 A3021 RMK AO2 T00540026
KRNP 200555Z AUTO 00000KT 10SM CLR 06/03 A3020 RMK AO2 T00560028 10135 20051